createdAt,value
2022-11-17T00:01:24.513Z,3.92
2022-11-17T00:03:52.039Z,4.50
2022-11-17T00:06:22.456Z,4.47
2022-11-17T00:08:49.581Z,4.78
2022-11-17T00:11:16.640Z,4.68
2022-11-17T00:14:02.482Z,4.53
2022-11-17T00:16:29.285Z,4.80
2022-11-17T00:19:14.506Z,4.45
2022-11-17T00:21:42.000Z,4.50
2022-11-17T00:24:08.840Z,4.60
2022-11-17T00:26:57.026Z,4.30
2022-11-17T00:29:23.751Z,4.43
2022-11-17T00:32:09.175Z,4.10
2022-11-17T00:34:36.028Z,3.88
2022-11-17T00:37:03.278Z,4.10
2022-11-17T00:39:30.162Z,4.20
2022-11-17T00:41:57.456Z,3.47
2022-11-17T00:44:24.768Z,3.97
2022-11-17T00:46:52.014Z,4.07
2022-11-17T00:49:25.211Z,4.53
2022-11-17T00:51:53.237Z,4.40
2022-11-17T00:54:20.670Z,4.30
2022-11-17T00:56:47.764Z,4.57
2022-11-17T00:59:14.843Z,4.80
2022-11-17T01:01:42.399Z,4.90
2022-11-17T01:04:09.451Z,5.00
2022-11-17T01:06:41.894Z,5.32
2022-11-17T01:09:16.464Z,6.30
2022-11-17T01:11:43.864Z,6.15
2022-11-17T01:14:14.636Z,6.15
2022-11-17T01:16:41.825Z,5.93
2022-11-17T01:19:10.230Z,6.05
2022-11-17T01:21:36.999Z,6.07
2022-11-17T01:24:04.112Z,6.32
2022-11-17T01:26:34.142Z,6.32
2022-11-17T01:29:02.272Z,6.38
2022-11-17T01:31:31.827Z,6.65
2022-11-17T01:33:58.790Z,5.53
2022-11-17T01:36:28.833Z,6.15
2022-11-17T01:38:55.987Z,5.85
2022-11-17T01:41:27.992Z,6.22
2022-11-17T01:44:19.139Z,6.00
2022-11-17T01:46:46.454Z,6.13
2022-11-17T01:49:24.909Z,5.90
2022-11-17T01:51:55.919Z,5.05
2022-11-17T01:54:28.051Z,5.25
2022-11-17T01:57:02.863Z,5.28
2022-11-17T01:59:40.269Z,5.63
2022-11-17T02:02:07.945Z,5.95
2022-11-17T02:04:37.884Z,4.97
2022-11-17T02:07:25.690Z,5.10
2022-11-17T02:09:53.287Z,4.72
2022-11-17T02:12:21.519Z,5.43
2022-11-17T02:14:50.275Z,5.88
2022-11-17T02:17:18.354Z,5.25
2022-11-17T02:19:50.725Z,4.82
2022-11-17T02:22:55.187Z,4.82
2022-11-17T02:25:26.824Z,6.15
2022-11-17T02:28:26.000Z,4.97
2022-11-17T02:31:22.154Z,5.70
2022-11-17T02:34:15.060Z,5.85
2022-11-17T02:37:20.799Z,7.13
2022-11-17T02:40:00.755Z,6.28
2022-11-17T02:43:00.120Z,6.35
2022-11-17T02:45:53.088Z,7.47
2022-11-17T02:48:34.696Z,8.13
2022-11-17T02:51:03.812Z,5.63
2022-11-17T02:53:31.672Z,6.20
2022-11-17T02:56:01.976Z,5.50
2022-11-17T02:58:28.793Z,6.53
2022-11-17T03:01:45.689Z,6.50
2022-11-17T03:04:24.493Z,5.93
2022-11-17T03:07:35.394Z,6.85
2022-11-17T03:10:40.808Z,6.05
2022-11-17T03:13:46.558Z,5.95
2022-11-17T03:16:28.156Z,5.20
2022-11-17T03:19:34.542Z,6.13
2022-11-17T03:22:20.669Z,5.90
2022-11-17T03:24:51.054Z,5.00
2022-11-17T03:27:54.865Z,5.68
2022-11-17T03:30:23.180Z,5.82
2022-11-17T03:32:55.003Z,5.57
2022-11-17T03:35:27.127Z,5.45
2022-11-17T03:38:02.237Z,5.18
2022-11-17T03:40:32.439Z,5.28
2022-11-17T03:43:02.321Z,5.07
2022-11-17T03:45:39.351Z,4.95
2022-11-17T03:48:19.577Z,4.57
2022-11-17T03:50:54.371Z,5.15
2022-11-17T03:53:21.861Z,5.10
2022-11-17T03:55:57.532Z,4.97
2022-11-17T03:58:28.637Z,4.82
2022-11-17T04:00:58.336Z,4.28
2022-11-17T04:03:30.941Z,5.00
2022-11-17T04:05:57.779Z,4.80
2022-11-17T04:08:29.465Z,4.32
2022-11-17T04:11:15.975Z,4.40
2022-11-17T04:14:09.220Z,4.28
2022-11-17T04:16:35.932Z,4.30
2022-11-17T04:19:02.830Z,4.05
2022-11-17T04:21:29.643Z,4.63
2022-11-17T04:23:57.892Z,4.72
2022-11-17T04:26:43.321Z,4.80
2022-11-17T04:29:10.115Z,4.40
2022-11-17T04:31:36.873Z,4.50
2022-11-17T04:34:05.614Z,4.50
2022-11-17T04:36:40.803Z,4.05
2022-11-17T04:39:07.691Z,4.18
2022-11-17T04:41:53.881Z,3.55
2022-11-17T04:44:23.424Z,3.47
2022-11-17T04:46:50.688Z,3.22
2022-11-17T04:49:19.247Z,3.65
2022-11-17T04:51:46.589Z,3.88
2022-11-17T04:54:15.615Z,4.10
2022-11-17T04:56:42.855Z,4.10
2022-11-17T04:59:10.122Z,4.10
2022-11-17T05:01:37.603Z,3.85
2022-11-17T05:04:11.993Z,2.70
2022-11-17T05:06:44.076Z,2.55
2022-11-17T05:09:16.312Z,2.60
2022-11-17T05:12:02.579Z,2.50
2022-11-17T05:14:30.429Z,2.75
2022-11-17T05:17:10.792Z,2.90
2022-11-17T05:19:48.312Z,2.10
2022-11-17T05:22:40.728Z,2.63
2022-11-17T05:25:08.191Z,2.40
2022-11-17T05:27:35.418Z,2.30
2022-11-17T05:30:07.833Z,2.78
2022-11-17T05:32:34.877Z,2.67
2022-11-17T05:35:01.805Z,2.30
2022-11-17T05:37:28.781Z,2.53
2022-11-17T05:39:55.639Z,2.83
2022-11-17T05:42:22.376Z,2.70
2022-11-17T05:44:49.203Z,2.30
2022-11-17T05:47:16.164Z,2.25
2022-11-17T05:49:42.945Z,2.28
2022-11-17T05:52:09.779Z,2.40
2022-11-17T05:54:36.610Z,2.75
2022-11-17T05:57:12.177Z,2.60
2022-11-17T05:59:51.207Z,2.10
2022-11-17T06:02:24.740Z,2.30
2022-11-17T06:04:52.040Z,2.20
2022-11-17T06:07:19.804Z,2.75
2022-11-17T06:09:47.582Z,2.40
2022-11-17T06:12:15.363Z,2.78
2022-11-17T06:14:42.594Z,2.40
2022-11-17T06:17:27.087Z,2.30
2022-11-17T06:20:06.738Z,2.38
2022-11-17T06:22:34.444Z,2.70
2022-11-17T06:25:03.371Z,3.55
2022-11-17T06:27:32.191Z,3.55
2022-11-17T06:30:01.316Z,4.35
2022-11-17T06:32:28.375Z,4.20
2022-11-17T06:34:56.537Z,3.38
2022-11-17T06:37:24.797Z,3.97
2022-11-17T06:39:51.651Z,3.00
2022-11-17T06:42:18.734Z,3.17
2022-11-17T06:44:45.587Z,3.00
2022-11-17T06:47:12.325Z,2.85
2022-11-17T06:49:39.176Z,3.13
2022-11-17T06:52:05.948Z,3.50
2022-11-17T06:54:32.713Z,3.28
2022-11-17T06:56:59.580Z,3.47
2022-11-17T06:59:26.462Z,3.55
2022-11-17T07:01:53.330Z,3.38
2022-11-17T07:04:20.201Z,3.38
2022-11-17T07:06:47.635Z,2.92
2022-11-17T07:09:14.456Z,3.60
2022-11-17T07:11:41.230Z,3.72
2022-11-17T07:14:08.121Z,3.58
2022-11-17T07:16:34.934Z,3.17
2022-11-17T07:19:03.806Z,3.42
2022-11-17T07:21:30.809Z,3.25
2022-11-17T07:23:57.892Z,3.15
2022-11-17T07:26:24.777Z,3.22
2022-11-17T07:28:51.635Z,3.58
2022-11-17T07:31:18.477Z,3.60
2022-11-17T07:33:45.280Z,2.75
2022-11-17T07:36:14.693Z,2.70
2022-11-17T07:38:41.517Z,2.88
2022-11-17T07:41:09.853Z,2.88
2022-11-17T07:43:37.278Z,3.15
2022-11-17T07:46:06.229Z,2.30
2022-11-17T07:48:33.589Z,2.83
2022-11-17T07:51:01.604Z,2.50
2022-11-17T07:53:29.006Z,2.63
2022-11-17T07:55:56.137Z,2.67
2022-11-17T07:58:25.499Z,2.67
2022-11-17T08:00:52.584Z,2.42
2022-11-17T08:03:19.616Z,4.32
2022-11-17T08:05:46.560Z,3.28
2022-11-17T08:08:13.786Z,2.63
2022-11-17T08:10:40.750Z,2.67
2022-11-17T08:13:07.815Z,2.40
2022-11-17T08:15:35.209Z,2.90
2022-11-17T08:18:02.940Z,3.33
2022-11-17T08:20:30.411Z,4.65
2022-11-17T08:22:57.416Z,3.33
2022-11-17T08:25:26.346Z,3.72
2022-11-17T08:28:00.153Z,4.10
2022-11-17T08:32:54.896Z,3.65
2022-11-17T08:35:24.145Z,2.70
2022-11-17T08:37:51.776Z,3.47
2022-11-17T08:40:19.366Z,3.55
2022-11-17T08:42:46.959Z,3.80
2022-11-17T08:45:14.361Z,2.90
2022-11-17T08:47:41.201Z,3.08
2022-11-17T08:50:08.951Z,2.50
2022-11-17T08:52:35.723Z,2.65
2022-11-17T08:55:02.812Z,1.83
2022-11-17T08:57:30.693Z,2.10
2022-11-17T08:59:58.076Z,1.55
2022-11-17T09:02:26.256Z,2.28
2022-11-17T09:04:53.101Z,2.30
2022-11-17T09:07:20.001Z,2.45
2022-11-17T09:09:46.947Z,3.08
2022-11-17T09:12:13.796Z,2.60
2022-11-17T09:14:40.882Z,2.00
2022-11-17T09:17:08.180Z,2.50
2022-11-17T09:19:35.007Z,1.85
2022-11-17T09:22:01.885Z,2.00
2022-11-17T09:24:28.710Z,1.88
2022-11-17T09:26:57.553Z,2.38
2022-11-17T09:29:24.460Z,2.55
2022-11-17T09:31:51.510Z,2.45
2022-11-17T09:34:18.605Z,2.60
2022-11-17T09:36:45.476Z,2.30
2022-11-17T09:39:12.271Z,2.13
2022-11-17T09:41:43.682Z,2.17
2022-11-17T09:44:39.624Z,2.10
2022-11-17T09:47:35.978Z,1.80
2022-11-17T09:50:04.341Z,1.70
2022-11-17T09:52:49.380Z,2.00
2022-11-17T09:55:31.129Z,3.05
2022-11-17T09:58:28.301Z,2.75
2022-11-17T10:03:31.087Z,2.60
2022-11-17T10:06:00.688Z,2.25
2022-11-17T10:08:46.861Z,2.08
2022-11-17T10:11:35.227Z,1.90
2022-11-17T10:14:04.206Z,1.80
2022-11-17T10:16:31.493Z,1.70
2022-11-17T10:18:58.397Z,1.55
2022-11-17T10:21:30.423Z,2.13
2022-11-17T10:23:59.687Z,1.83
2022-11-17T10:26:28.076Z,2.20
2022-11-17T10:29:11.203Z,2.83
2022-11-17T10:31:46.215Z,2.95
2022-11-17T10:34:40.251Z,3.30
2022-11-17T10:37:14.145Z,2.65
2022-11-17T10:39:42.847Z,6.53
2022-11-17T10:42:27.957Z,12.60
2022-11-17T10:44:58.702Z,8.55
2022-11-17T10:47:30.062Z,6.05
2022-11-17T10:50:18.943Z,3.00
2022-11-17T10:52:46.591Z,2.42
2022-11-17T10:55:34.132Z,2.35
2022-11-17T10:58:23.993Z,2.30
2022-11-17T11:01:04.033Z,2.67
2022-11-17T11:03:33.938Z,2.65
2022-11-17T11:06:21.758Z,2.40
2022-11-17T11:08:55.301Z,2.20
2022-11-17T11:11:43.052Z,2.25
2022-11-17T11:14:19.754Z,2.25
2022-11-17T11:16:48.605Z,2.20
2022-11-17T11:19:17.723Z,1.60
2022-11-17T11:22:02.826Z,2.33
2022-11-17T11:25:03.313Z,2.15
2022-11-17T11:27:51.318Z,2.20
2022-11-17T11:30:19.512Z,2.15
2022-11-17T11:32:58.622Z,2.15
2022-11-17T11:35:44.052Z,2.05
2022-11-17T11:38:49.091Z,2.30
2022-11-17T11:41:21.631Z,2.28
2022-11-17T11:44:16.249Z,2.42
2022-11-17T11:47:08.949Z,2.40
2022-11-17T11:49:51.596Z,2.30
2022-11-17T11:52:25.620Z,2.80
2022-11-17T11:55:15.369Z,2.03
2022-11-17T11:57:51.745Z,2.45
2022-11-17T12:00:20.106Z,2.42
2022-11-17T12:03:03.884Z,2.28
2022-11-17T12:05:36.894Z,2.15
2022-11-17T12:08:20.842Z,2.40
2022-11-17T12:11:29.518Z,2.58
2022-11-17T12:13:57.460Z,2.92
2022-11-17T12:16:44.538Z,2.28
2022-11-17T12:19:46.120Z,2.35
2022-11-17T12:22:36.222Z,2.53
2022-11-17T12:25:17.618Z,2.58
2022-11-17T12:27:53.226Z,2.22
2022-11-17T12:30:31.943Z,2.60
2022-11-17T12:33:06.095Z,2.83
2022-11-17T12:35:34.153Z,2.30
2022-11-17T12:38:16.570Z,2.60
2022-11-17T12:40:44.800Z,2.50
2022-11-17T12:43:27.918Z,2.55
2022-11-17T12:46:22.186Z,2.17
2022-11-17T12:51:53.150Z,2.35
2022-11-17T12:54:36.736Z,2.55
2022-11-17T12:57:21.193Z,2.30
2022-11-17T12:59:53.571Z,2.00
2022-11-17T13:02:26.281Z,2.88
2022-11-17T13:04:59.962Z,2.30
2022-11-17T13:07:27.316Z,2.88
2022-11-17T13:09:59.384Z,4.30
2022-11-17T13:12:28.349Z,3.03
2022-11-17T13:15:04.173Z,3.00
2022-11-17T13:17:32.932Z,2.38
2022-11-17T13:20:12.286Z,2.47
2022-11-17T13:22:41.975Z,2.10
2022-11-17T13:25:38.144Z,2.25
2022-11-17T13:28:05.935Z,2.53
2022-11-17T13:30:33.270Z,2.35
2022-11-17T13:33:03.161Z,2.63
2022-11-17T13:35:32.926Z,1.92
2022-11-17T13:38:25.405Z,2.00
2022-11-17T13:40:53.536Z,3.58
2022-11-17T13:43:22.648Z,4.55
2022-11-17T13:45:50.687Z,5.55
2022-11-17T13:48:47.030Z,7.07
2022-11-17T13:51:35.177Z,6.68
2022-11-17T13:54:16.443Z,8.75
2022-11-17T13:56:46.275Z,11.25
2022-11-17T13:59:22.716Z,11.52
2022-11-17T14:01:49.731Z,9.30
2022-11-17T14:04:22.601Z,7.60
2022-11-17T14:07:01.559Z,5.10
2022-11-17T14:09:31.739Z,4.80
2022-11-17T14:11:59.277Z,4.32
2022-11-17T14:14:38.677Z,3.85
2022-11-17T14:17:19.480Z,3.78
2022-11-17T14:19:46.796Z,5.97
2022-11-17T14:22:21.381Z,10.32
2022-11-17T14:24:51.197Z,11.48
2022-11-17T14:27:29.986Z,10.30
2022-11-17T14:29:56.859Z,6.47
2022-11-17T14:32:23.644Z,5.38
2022-11-17T14:34:50.457Z,4.90
2022-11-17T14:37:17.448Z,3.75
2022-11-17T14:39:44.349Z,3.45
2022-11-17T14:42:11.347Z,3.78
2022-11-17T14:44:38.200Z,4.60
2022-11-17T14:47:05.019Z,6.13
2022-11-17T14:49:31.817Z,5.50
2022-11-17T14:51:59.382Z,3.85
2022-11-17T14:54:26.528Z,3.35
2022-11-17T14:56:53.340Z,3.00
2022-11-17T14:59:20.819Z,3.17
2022-11-17T15:01:47.623Z,3.15
2022-11-17T15:04:48.155Z,3.03
2022-11-17T15:07:03.319Z,3.22
2022-11-17T15:09:30.305Z,3.00
2022-11-17T15:11:57.115Z,3.00
2022-11-17T15:14:23.988Z,2.35
2022-11-17T15:16:51.215Z,3.10
2022-11-17T15:19:18.018Z,3.70
2022-11-17T15:21:45.528Z,3.53
2022-11-17T15:24:12.335Z,3.00
2022-11-17T15:26:39.238Z,3.22
2022-11-17T15:29:06.128Z,2.60
2022-11-17T15:31:32.936Z,2.40
2022-11-17T15:34:01.605Z,2.75
2022-11-17T15:36:28.442Z,3.22
2022-11-17T15:38:56.752Z,2.25
2022-11-17T15:41:28.465Z,2.35
2022-11-17T15:43:58.314Z,2.72
2022-11-17T15:46:25.094Z,2.35
2022-11-17T15:48:53.088Z,2.58
2022-11-17T15:51:21.848Z,2.47
2022-11-17T15:53:50.526Z,2.50
2022-11-17T15:56:22.415Z,2.67
2022-11-17T15:59:05.112Z,2.65
2022-11-17T16:01:39.315Z,2.90
2022-11-17T16:04:08.796Z,3.67
2022-11-17T16:06:37.808Z,3.28
2022-11-17T16:09:06.585Z,3.47
2022-11-17T16:11:33.967Z,3.25
2022-11-17T16:14:01.605Z,3.17
2022-11-17T16:16:31.537Z,3.55
2022-11-17T16:18:58.443Z,2.65
2022-11-17T16:21:25.839Z,2.65
2022-11-17T16:23:57.940Z,2.00
2022-11-17T16:26:26.136Z,2.38
2022-11-17T16:29:00.473Z,2.30
2022-11-17T16:31:29.567Z,4.10
2022-11-17T16:34:01.696Z,5.80
2022-11-17T16:36:35.966Z,8.18
2022-11-17T16:39:04.661Z,8.10
2022-11-17T16:41:36.902Z,7.80
2022-11-17T16:44:08.428Z,9.18
2022-11-17T16:46:35.559Z,6.32
2022-11-17T16:49:07.337Z,6.13
2022-11-17T16:51:34.765Z,4.63
2022-11-17T16:54:04.057Z,3.70
2022-11-17T16:56:32.052Z,3.28
2022-11-17T16:58:59.561Z,3.60
2022-11-17T17:01:30.366Z,3.03
2022-11-17T17:03:59.440Z,3.03
2022-11-17T17:06:27.145Z,3.20
2022-11-17T17:09:03.161Z,3.40
2022-11-17T17:11:32.055Z,2.90
2022-11-17T17:14:01.406Z,3.13
2022-11-17T17:16:29.183Z,2.28
2022-11-17T17:18:59.544Z,2.50
2022-11-17T17:21:27.994Z,2.38
2022-11-17T17:23:55.769Z,2.20
2022-11-17T17:26:24.252Z,2.60
2022-11-17T17:28:54.183Z,2.13
2022-11-17T17:31:22.809Z,1.83
2022-11-17T17:33:50.737Z,2.08
2022-11-17T17:36:20.254Z,2.20
2022-11-17T17:38:53.281Z,2.15
2022-11-17T17:41:23.637Z,2.53
2022-11-17T17:43:56.730Z,2.25
2022-11-17T17:46:24.082Z,1.92
2022-11-17T17:48:52.298Z,2.10
2022-11-17T17:51:20.763Z,2.55
2022-11-17T17:53:51.353Z,2.63
2022-11-17T17:56:19.822Z,2.22
2022-11-17T17:58:49.047Z,2.40
2022-11-17T18:01:18.569Z,2.10
2022-11-17T18:03:48.159Z,2.50
2022-11-17T18:06:17.276Z,2.70
2022-11-17T18:08:44.827Z,2.50
2022-11-17T18:11:17.405Z,2.63
2022-11-17T18:13:46.474Z,3.28
2022-11-17T18:16:15.933Z,3.97
2022-11-17T18:18:45.321Z,3.65
2022-11-17T18:21:14.626Z,3.45
2022-11-17T18:23:42.231Z,3.75
2022-11-17T18:26:15.697Z,3.90
2022-11-17T18:28:44.694Z,3.47
2022-11-17T18:31:11.748Z,3.47
2022-11-17T18:33:38.794Z,3.35
2022-11-17T18:36:09.649Z,4.20
2022-11-17T18:38:37.691Z,3.78
2022-11-17T18:41:06.202Z,4.35
2022-11-17T18:43:33.851Z,4.70
2022-11-17T18:46:02.384Z,4.40
2022-11-17T18:48:31.751Z,4.63
2022-11-17T18:51:18.601Z,4.40
2022-11-17T18:53:45.607Z,4.05
2022-11-17T18:56:14.922Z,3.90
2022-11-17T18:58:42.810Z,3.72
2022-11-17T19:01:17.173Z,3.78
2022-11-17T19:03:45.545Z,3.13
2022-11-17T19:06:14.130Z,3.65
2022-11-17T19:08:42.074Z,3.17
2022-11-17T19:11:09.965Z,2.40
2022-11-17T19:13:38.665Z,3.20
2022-11-17T19:16:06.413Z,2.97
2022-11-17T19:18:33.566Z,2.95
2022-11-17T19:21:28.736Z,3.08
2022-11-17T19:23:58.280Z,3.53
2022-11-17T19:26:33.629Z,3.72
2022-11-17T19:29:06.418Z,3.42
2022-11-17T19:31:36.333Z,3.55
2022-11-17T19:34:03.885Z,3.22
2022-11-17T19:36:32.624Z,2.95
2022-11-17T19:39:02.346Z,3.03
2022-11-17T19:41:34.934Z,2.28
2022-11-17T19:44:05.347Z,2.70
2022-11-17T19:46:33.244Z,2.85
2022-11-17T19:49:00.148Z,2.60
2022-11-17T19:51:30.389Z,2.90
2022-11-17T19:54:01.885Z,3.00
2022-11-17T19:56:29.762Z,3.05
2022-11-17T19:58:57.300Z,2.92
2022-11-17T20:01:28.656Z,3.05
2022-11-17T20:03:56.757Z,3.65
2022-11-17T20:06:27.454Z,2.97
2022-11-17T20:08:56.294Z,3.03
2022-11-17T20:11:25.620Z,2.95
2022-11-17T20:13:53.298Z,2.90
2022-11-17T20:16:24.959Z,2.97
2022-11-17T20:18:54.096Z,3.33
2022-11-17T20:21:21.325Z,2.80
2022-11-17T20:23:49.075Z,2.63
2022-11-17T20:26:22.189Z,2.65
2022-11-17T20:28:49.986Z,2.38
2022-11-17T20:31:24.340Z,1.70
2022-11-17T20:33:53.639Z,1.60
2022-11-17T20:36:21.575Z,1.90
2022-11-17T20:38:52.088Z,1.60
2022-11-17T20:41:21.079Z,1.77
2022-11-17T20:43:49.206Z,1.60
2022-11-17T20:46:16.154Z,1.60
2022-11-17T20:48:43.210Z,1.83
2022-11-17T20:51:13.216Z,1.70
2022-11-17T20:53:41.184Z,1.50
2022-11-17T20:56:09.464Z,1.35
2022-11-17T20:58:36.832Z,1.75
2022-11-17T21:01:14.652Z,1.60
2022-11-17T21:03:43.608Z,1.65
2022-11-17T21:06:11.780Z,1.63
2022-11-17T21:08:41.514Z,1.80
2022-11-17T21:11:10.917Z,2.13
2022-11-17T21:13:38.440Z,1.52
2022-11-17T21:16:08.396Z,1.63
2022-11-17T21:18:36.542Z,1.70
2022-11-17T21:21:11.550Z,1.92
2022-11-17T21:23:40.049Z,2.15
2022-11-17T21:26:14.850Z,1.85
2022-11-17T21:28:42.168Z,1.90
2022-11-17T21:31:10.960Z,1.88
2022-11-17T21:33:38.474Z,1.90
2022-11-17T21:36:11.389Z,1.98
2022-11-17T21:38:38.317Z,2.00
2022-11-17T21:41:11.449Z,2.15
2022-11-17T21:43:39.785Z,2.30
2022-11-17T21:46:13.836Z,3.50
2022-11-17T21:48:40.684Z,4.43
2022-11-17T21:51:14.229Z,3.75
2022-11-17T21:53:42.446Z,3.60
2022-11-17T21:56:09.258Z,2.03
2022-11-17T21:58:36.432Z,1.92
2022-11-17T22:01:11.541Z,1.98
2022-11-17T22:03:40.539Z,2.10
2022-11-17T22:06:19.877Z,2.65
2022-11-17T22:08:47.878Z,2.42
2022-11-17T22:11:36.149Z,2.40
2022-11-17T22:14:07.736Z,2.78
2022-11-17T22:16:56.430Z,2.45
2022-11-17T22:19:27.002Z,2.30
2022-11-17T22:21:54.809Z,2.33
2022-11-17T22:24:23.332Z,2.03
2022-11-17T22:26:51.679Z,2.50
2022-11-17T22:29:21.621Z,2.17
2022-11-17T22:31:49.856Z,2.20
2022-11-17T22:34:17.445Z,2.33
2022-11-17T22:36:44.277Z,2.10
2022-11-17T22:39:11.598Z,2.20
2022-11-17T22:41:39.947Z,2.25
2022-11-17T22:44:07.181Z,2.20
2022-11-17T22:46:35.159Z,2.10
2022-11-17T22:49:02.031Z,2.42
2022-11-17T22:51:47.374Z,1.88
2022-11-17T22:54:14.550Z,2.00
2022-11-17T22:56:41.607Z,1.52
2022-11-17T22:59:09.868Z,1.90
2022-11-17T23:01:37.085Z,1.90
2022-11-17T23:04:04.013Z,1.70
2022-11-17T23:06:30.790Z,1.75
2022-11-17T23:08:58.361Z,1.60
2022-11-17T23:11:41.895Z,2.00
2022-11-17T23:14:11.672Z,1.65
2022-11-17T23:16:38.968Z,1.80
2022-11-17T23:19:05.997Z,2.15
2022-11-17T23:21:33.006Z,2.58
2022-11-17T23:23:59.791Z,1.60
2022-11-17T23:26:26.575Z,2.10
2022-11-17T23:28:53.424Z,2.17
2022-11-17T23:31:20.509Z,1.90
2022-11-17T23:33:48.422Z,2.20
2022-11-17T23:36:20.338Z,2.20
2022-11-17T23:38:49.060Z,2.10
2022-11-17T23:41:19.493Z,2.20
2022-11-17T23:43:49.715Z,2.58
2022-11-17T23:46:19.000Z,2.33
2022-11-17T23:48:46.043Z,2.03
2022-11-17T23:51:19.241Z,2.70
2022-11-17T23:53:47.875Z,2.17
2022-11-17T23:56:15.485Z,2.08
2022-11-17T23:58:43.519Z,1.98
